Etusivu
METAR-TAF:

METAR-TAF

Lentoasemat :

Vilhelminan, Ruotsi

Leveyspiiri: 64-34-44N, Pituuspiiri: 016-50-00E, korkeus merenpinnasta: 347 m

Tämänhetkinen sää

Tämä raportti tehtiin 29 minuuttia sitten, kello 11.50 UTC
Tuuli 15 kn lännestä/lounaasta
Lämpötila 4°C
Kosteus 65%
Ilmanpaine 997 hPa
Näkyvyys 10 km tai enemmän

METAR: ESNV 221150Z AUTO 25015KT 9999 SCT032/// 04/M02 Q0997

Aika: 14:19 (12:19 UTC)


TAF: puuttuu

Säähavainnot ja -ennusteet yli 4000 lentoasemalta (METAR- ja TAF-raportit).

Käytössä olevat sääasemat on merkitty karttaan keltaisilla ja punaisilla pisteillä.

Aseta hiiri pisteen päälle nähdäksesi sääaseman nimen.

Klikkaa sitten nähdäksesi säähavainnot ja -ennusteet.

Kartan vaihtaminen: klikkaa mustalla rastilla varustettuja vihreitä pisteitä, niin voit zoomata sisään; viivalla varustettua vihreää pistettä, niin voit zoomata ulos tai vihreitä nuolia, niin pääset viereisille kartoille.


METAR-TAF: